Time;durP1;ratioP1;P1;durP2;ratioP2;P2;SDS_P1;SDS_P2;PMS_P1;PMS_P2;Temp;Humidity;BMP_temperature;BMP_pressure;BME280_temperature;BME280_humidity;BME280_pressure;Samples;Min_cycle;Max_cycle;Signal;HPM_P1;HPM_P2
2022/01/13 00:02:29;;;;;;;35.20;14.77;;;;;;;0.50;81.84;102317.81;4960071;28;20070;-87
2022/01/13 00:04:55;;;;;;;29.13;13.35;;;;;;;0.63;81.34;102317.41;4961382;28;20035;-87
2022/01/13 00:07:20;;;;;;;25.40;12.25;;;;;;;0.08;82.53;102315.84;4959629;28;20038;-85
2022/01/13 00:09:46;;;;;;;30.55;11.70;;;;;;;0.28;81.82;102316.88;4959038;28;20086;-86
2022/01/13 00:12:13;;;;;;;21.35;10.63;;;;;;;0.40;80.02;102313.84;4961044;28;20082;-86
2022/01/13 00:14:52;;;;;;;27.15;11.60;;;;;;;0.35;79.74;102320.13;4959583;28;20564;-85
2022/01/13 00:19:55;;;;;;;23.80;10.63;;;;;;;0.51;79.48;102319.53;4958030;28;20051;-84
2022/01/13 00:22:41;;;;;;;24.45;11.43;;;;;;;0.61;79.20;102324.41;4955592;28;20064;-90
2022/01/13 00:25:09;;;;;;;24.13;10.52;;;;;;;0.80;78.94;102326.31;4958125;28;20082;-86
2022/01/13 00:27:38;;;;;;;28.27;11.57;;;;;;;0.63;78.95;102322.63;4957027;28;20054;-86
2022/01/13 00:30:04;;;;;;;23.60;11.05;;;;;;;0.24;80.77;102324.84;4958205;28;20036;-88
2022/01/13 00:32:32;;;;;;;29.98;12.27;;;;;;;0.24;80.34;102327.44;4959574;28;20114;-88
2022/01/13 00:34:58;;;;;;;34.67;11.88;;;;;;;0.32;81.19;102322.84;4957667;28;20027;-84
2022/01/13 00:37:24;;;;;;;26.73;12.18;;;;;;;0.27;80.67;102324.75;4958504;28;20073;-89
2022/01/13 00:39:49;;;;;;;27.10;11.88;;;;;;;0.42;81.69;102329.44;4955792;28;20031;-86
2022/01/13 00:42:15;;;;;;;29.92;12.77;;;;;;;0.30;81.92;102343.75;4970476;28;20035;-85
2022/01/13 00:44:55;;;;;;;30.17;12.90;;;;;;;0.56;80.98;102350.69;4963370;28;20079;-86
2022/01/13 00:47:21;;;;;;;27.95;12.55;;;;;;;0.66;80.73;102348.59;5305040;23;20066;-86
2022/01/13 00:49:46;;;;;;;26.50;12.02;;;;;;;0.29;81.93;102357.72;4985298;28;20090;-85
2022/01/13 00:52:12;;;;;;;30.15;12.65;;;;;;;0.26;82.72;102356.97;4980257;28;20031;-83
2022/01/13 00:54:40;;;;;;;28.67;11.75;;;;;;;0.03;83.03;102359.47;4980691;28;20035;-89
2022/01/13 00:57:09;;;;;;;26.70;12.40;;;;;;;-0.09;83.16;102360.72;4979139;28;20039;-88
2022/01/13 00:59:37;;;;;;;30.50;12.05;;;;;;;0.16;83.27;102360.78;4979570;28;20035;-87
2022/01/13 01:02:03;;;;;;;27.27;11.93;;;;;;;0.13;83.26;102364.34;4980528;28;20034;-86
2022/01/13 01:04:28;;;;;;;29.05;13.00;;;;;;;-0.23;85.50;102371.56;4967298;28;20031;-85
2022/01/13 01:06:54;;;;;;;25.92;12.80;;;;;;;-0.35;86.28;102373.69;4992915;28;20043;-84
2022/01/13 01:09:30;;;;;;;30.33;12.75;;;;;;;-0.46;87.45;102378.41;4996125;28;20053;-83
2022/01/13 01:12:02;;;;;;;25.63;12.18;;;;;;;-0.55;87.43;102372.56;4997584;28;20034;-86
2022/01/13 01:14:31;;;;;;;31.13;13.00;;;;;;;-0.49;87.99;102371.53;4990840;23;20047;-85
2022/01/13 01:16:57;;;;;;;32.42;12.75;;;;;;;-0.45;87.28;102387.91;4977621;28;20023;-86
2022/01/13 01:19:27;;;;;;;25.75;11.48;;;;;;;-0.14;86.42;102386.06;4981853;28;20042;-86
2022/01/13 01:25:31;;;;;;;25.67;11.52;;;;;;;0.14;83.85;102392.09;4979877;28;20039;-85
2022/01/13 01:27:42;;;;;;;22.95;11.13;;;;;;;0.00;83.55;102396.91;4976114;28;20050;-86
2022/01/13 01:30:25;;;;;;;29.58;11.32;;;;;;;0.09;82.18;102404.44;4980505;28;20730;-86
2022/01/13 01:32:54;;;;;;;24.48;10.80;;;;;;;-0.14;83.17;102404.31;4979142;28;20041;-87
2022/01/13 01:35:24;;;;;;;30.52;10.73;;;;;;;0.20;81.83;102407.53;4983259;28;20039;-86
2022/01/13 01:37:55;;;;;;;24.45;10.90;;;;;;;0.07;80.87;102408.00;4983218;28;20039;-86
2022/01/13 01:40:22;;;;;;;23.30;10.60;;;;;;;-0.12;82.58;102399.88;4979253;28;20046;-88
2022/01/13 01:42:49;;;;;;;23.80;10.05;;;;;;;0.16;82.28;102400.72;4977743;28;20035;-85
2022/01/13 01:45:16;;;;;;;29.77;12.43;;;;;;;0.22;81.67;102405.75;4977984;28;20051;-88
2022/01/13 01:47:43;;;;;;;25.05;11.02;;;;;;;0.12;81.98;102409.53;4979477;28;20042;-87
2022/01/13 01:50:18;;;;;;;26.92;11.95;;;;;;;0.19;82.17;102402.38;4977650;28;20093;-87
2022/01/13 01:52:49;;;;;;;27.02;11.02;;;;;;;0.39;81.46;102402.56;4978639;28;20485;-90
2022/01/13 01:55:16;;;;;;;21.85;11.82;;;;;;;0.26;82.81;102396.94;4977829;28;20034;-90
2022/01/13 01:57:44;;;;;;;29.10;13.10;;;;;;;0.31;82.75;102399.34;4977964;28;20035;-88
2022/01/13 02:00:13;;;;;;;26.70;12.07;;;;;;;0.37;82.52;102399.16;4976436;28;20038;-88
2022/01/13 02:02:39;;;;;;;23.00;12.55;;;;;;;0.12;84.28;102404.34;4977607;28;20062;-86
2022/01/13 02:05:05;;;;;;;33.08;13.05;;;;;;;0.06;83.98;102404.53;4977277;28;20424;-88
2022/01/13 02:07:31;;;;;;;27.38;12.27;;;;;;;0.11;84.12;102407.84;4977591;28;20034;-88
2022/01/13 02:09:56;;;;;;;26.45;12.32;;;;;;;0.24;84.02;102419.56;4982657;28;20038;-88
2022/01/13 02:15:15;;;;;;;34.55;13.02;;;;;;;0.02;85.53;102412.50;4976852;28;20427;-86
2022/01/13 02:17:41;;;;;;;26.67;11.38;;;;;;;0.03;84.13;102415.06;4976941;28;20039;-91
2022/01/13 02:20:09;;;;;;;20.10;9.27;;;;;;;0.01;82.49;102424.66;4976908;28;20498;-90
2022/01/13 02:22:35;;;;;;;22.17;9.13;;;;;;;-0.06;79.17;102420.53;4975340;28;20031;-86
2022/01/13 02:25:02;;;;;;;15.98;7.68;;;;;;;-0.35;78.63;102423.19;4976681;28;20038;-87
2022/01/13 02:27:28;;;;;;;14.50;6.70;;;;;;;-0.36;77.93;102418.88;4976865;28;20085;-86
2022/01/13 02:29:54;;;;;;;15.25;7.18;;;;;;;-0.14;76.98;102422.56;4976565;28;20429;-86
2022/01/13 02:32:20;;;;;;;14.82;6.40;;;;;;;-0.07;76.18;102424.06;4979207;28;20031;-86
2022/01/13 02:34:45;;;;;;;14.95;6.68;;;;;;;0.00;74.86;102431.63;4980857;28;20341;-87
2022/01/13 02:37:11;;;;;;;15.10;6.80;;;;;;;-0.06;75.69;102420.53;4975379;28;20126;-90
2022/01/13 02:39:37;;;;;;;14.00;6.80;;;;;;;0.12;74.95;102425.19;4976600;28;20451;-90
2022/01/13 02:42:12;;;;;;;15.88;6.78;;;;;;;-0.04;74.92;102413.56;4978461;28;20105;-85
2022/01/13 02:44:48;;;;;;;20.30;9.05;;;;;;;0.10;75.60;102419.16;4978081;28;20051;-85
2022/01/13 02:49:58;;;;;;;22.33;9.02;;;;;;;-0.73;82.41;102421.72;4978561;28;20098;-88
2022/01/13 02:52:23;;;;;;;24.05;9.60;;;;;;;-0.69;82.77;102416.38;4976447;28;20042;-86
2022/01/13 02:54:49;;;;;;;25.48;9.65;;;;;;;-0.42;81.88;102416.47;4977728;28;20532;-87
2022/01/13 02:57:14;;;;;;;20.42;9.27;;;;;;;-0.56;84.11;102422.94;4976511;28;20049;-85
2022/01/13 02:59:40;;;;;;;21.90;9.25;;;;;;;-0.55;82.81;102427.25;4977331;28;20484;-86
2022/01/13 03:02:05;;;;;;;25.20;9.85;;;;;;;-0.37;81.91;102419.78;4976924;28;20034;-85
2022/01/13 03:04:31;;;;;;;25.33;9.27;;;;;;;-0.33;81.93;102413.59;4976473;28;20039;-87
2022/01/13 03:06:57;;;;;;;18.45;8.80;;;;;;;-0.39;82.79;102406.81;4974746;28;20504;-84
2022/01/13 03:09:23;;;;;;;22.85;9.35;;;;;;;-0.52;83.28;102401.13;4975679;28;20069;-86
2022/01/13 03:11:48;;;;;;;22.58;9.82;;;;;;;-0.48;83.56;102406.22;4958495;28;20058;-87
2022/01/13 03:14:14;;;;;;;23.70;10.73;;;;;;;-0.46;83.87;102404.44;4974175;28;20050;-85
2022/01/13 03:16:42;;;;;;;22.63;10.90;;;;;;;-0.45;83.18;102400.94;4975805;28;20123;-90
2022/01/13 03:19:08;;;;;;;25.73;11.13;;;;;;;-0.58;83.84;102406.50;4975201;28;20033;-87
2022/01/13 03:21:34;;;;;;;21.67;9.98;;;;;;;-0.69;84.88;102405.97;4975807;28;20067;-88
2022/01/13 03:24:00;;;;;;;22.92;10.60;;;;;;;-0.72;85.15;102413.84;4975981;28;20055;-87
2022/01/13 03:26:26;;;;;;;21.58;9.82;;;;;;;-0.63;84.22;102418.78;4975905;28;20106;-86
2022/01/13 03:28:54;;;;;;;24.20;10.18;;;;;;;-0.64;84.43;102418.84;4975333;28;20405;-86
2022/01/13 03:31:23;;;;;;;19.20;9.13;;;;;;;-0.38;83.34;102416.34;4975393;28;20027;-87
2022/01/13 03:33:50;;;;;;;20.00;10.13;;;;;;;-0.38;83.41;102402.44;4978710;28;20039;-86
2022/01/13 03:36:17;;;;;;;19.00;9.23;;;;;;;-0.30;83.37;102400.47;4999596;28;20054;-90
2022/01/13 03:38:47;;;;;;;22.27;9.88;;;;;;;-0.20;82.55;102412.31;4992864;28;20070;-86
2022/01/13 03:41:13;;;;;;;22.75;9.57;;;;;;;-0.39;82.70;102418.97;4975429;28;20046;-86
2022/01/13 03:43:39;;;;;;;29.40;9.75;;;;;;;-0.49;83.14;102417.53;4975007;28;20114;-85
2022/01/13 03:46:06;;;;;;;20.17;8.93;;;;;;;-0.52;82.66;102416.75;4975337;28;20428;-84
2022/01/13 03:48:32;;;;;;;19.83;8.73;;;;;;;-0.61;83.63;102423.97;4975274;28;20043;-88
2022/01/13 03:50:58;;;;;;;17.13;8.43;;;;;;;-0.64;82.88;102413.66;4977029;28;20070;-85
2022/01/13 03:53:27;;;;;;;17.42;8.15;;;;;;;-0.61;82.22;102418.75;4975943;28;20117;-87
2022/01/13 03:56:30;;;;;;;18.13;8.35;;;;;;;-0.33;81.96;102411.00;4975045;28;20110;-87
2022/01/13 04:02:19;;;;;;;22.17;8.90;;;;;;;-0.63;83.06;102418.78;4988560;28;20472;-87
2022/01/13 04:04:48;;;;;;;23.70;9.75;;;;;;;-0.61;83.11;102417.00;4998454;28;20026;-85
2022/01/13 04:07:20;;;;;;;20.05;9.73;;;;;;;-0.84;83.64;102419.44;4998021;28;20022;-85
2022/01/13 04:09:46;;;;;;;23.05;9.23;;;;;;;-0.73;83.92;102411.31;4996936;28;20026;-88
2022/01/13 04:12:14;;;;;;;23.60;8.82;;;;;;;-0.66;82.40;102405.88;4994995;28;20046;-84
2022/01/13 04:17:18;;;;;;;16.20;8.35;;;;;;;-0.27;80.66;102422.09;4976613;28;20039;-85
2022/01/13 04:19:45;;;;;;;18.85;9.00;;;;;;;-0.19;80.10;102422.69;4975458;28;20093;-86
2022/01/13 04:22:12;;;;;;;17.85;8.13;;;;;;;-0.06;78.82;102433.56;4976504;28;20033;-87
2022/01/13 04:24:42;;;;;;;18.95;8.10;;;;;;;-0.33;78.24;102426.63;4980844;28;20383;-89
2022/01/13 04:27:09;;;;;;;17.77;8.82;;;;;;;-0.34;79.40;102437.94;4978975;28;20027;-86
2022/01/13 04:29:41;;;;;;;20.45;9.55;;;;;;;-0.40;79.51;102444.19;4976917;28;20045;-88
2022/01/13 04:32:07;;;;;;;23.42;9.05;;;;;;;-0.61;79.01;102460.44;4975589;28;20046;-85
2022/01/13 04:34:34;;;;;;;20.38;9.55;;;;;;;-0.61;77.98;102456.06;4990351;28;20015;-85
2022/01/13 04:37:00;;;;;;;21.92;9.05;;;;;;;-0.40;77.69;102453.75;4995513;28;20483;-86
2022/01/13 04:39:31;;;;;;;19.65;8.20;;;;;;;-0.21;75.98;102447.09;4995402;28;20035;-86
2022/01/13 04:41:57;;;;;;;20.23;8.23;;;;;;;-0.40;74.85;102445.94;4992312;28;20019;-88
2022/01/13 04:44:24;;;;;;;14.85;7.45;;;;;;;-0.47;74.52;102449.63;4980661;28;20031;-87
2022/01/13 04:46:53;;;;;;;11.73;6.25;;;;;;;-0.66;74.17;102459.69;4998485;28;20034;-88
2022/01/13 04:49:19;;;;;;;9.80;4.43;;;;;;;-0.55;73.00;102461.09;4979149;28;20038;-85
2022/01/13 04:51:46;;;;;;;9.55;4.28;;;;;;;-0.38;72.58;102464.97;4975385;28;20046;-87
2022/01/13 04:54:12;;;;;;;16.20;4.15;;;;;;;-0.40;71.63;102464.16;4974262;28;20350;-87
2022/01/13 04:56:42;;;;;;;7.75;4.00;;;;;;;-0.25;71.27;102461.09;4974838;28;20039;-87
2022/01/13 05:02:30;;;;;;;10.10;4.38;;;;;;;-0.39;71.59;102453.69;4996924;28;20046;-85
2022/01/13 05:04:56;;;;;;;9.13;4.10;;;;;;;-0.27;71.75;102452.47;4974083;28;20488;-87
2022/01/13 05:07:21;;;;;;;8.40;4.10;;;;;;;-0.25;72.06;102456.75;4974674;28;20031;-87
2022/01/13 05:09:47;;;;;;;9.70;4.53;;;;;;;-0.27;71.90;102465.50;4977327;28;20117;-86
2022/01/13 05:12:12;;;;;;;11.50;4.22;;;;;;;-0.34;73.25;102472.66;4978510;28;20123;-89
2022/01/13 05:14:37;;;;;;;10.73;5.38;;;;;;;-0.21;72.48;102478.34;4978242;28;20045;-86
2022/01/13 05:17:34;;;;;;;9.38;5.03;;;;;;;-0.67;73.84;102484.88;4977413;28;20039;-89
2022/01/13 05:20:11;;;;;;;11.65;5.60;;;;;;;-1.09;76.68;102486.03;4977617;28;20054;-85
2022/01/13 05:22:36;;;;;;;16.75;5.63;;;;;;;-1.31;78.27;102484.88;4977674;28;20049;-86
2022/01/13 05:25:04;;;;;;;12.93;5.93;;;;;;;-1.45;80.52;102486.97;4977139;28;20035;-87
2022/01/13 05:27:30;;;;;;;15.13;6.72;;;;;;;-1.44;80.84;102488.66;4977411;28;20035;-88
2022/01/13 05:29:55;;;;;;;14.40;6.35;;;;;;;-1.43;81.37;102490.38;4977427;28;20086;-87
2022/01/13 05:32:21;;;;;;;17.17;6.55;;;;;;;-1.41;80.92;102494.66;4977295;28;20035;-86
2022/01/13 05:34:46;;;;;;;21.17;6.15;;;;;;;-1.44;81.44;102499.94;4977630;28;20085;-88
2022/01/13 05:37:12;;;;;;;14.95;6.15;;;;;;;-1.41;83.54;102493.78;4977757;28;20487;-87
2022/01/13 05:39:38;;;;;;;18.63;5.78;;;;;;;-1.19;83.57;102494.94;4977796;28;20483;-86
2022/01/13 05:42:03;;;;;;;16.40;6.32;;;;;;;-1.17;78.44;102498.41;4977444;28;20027;-85
2022/01/13 05:44:36;;;;;;;11.55;5.22;;;;;;;-1.40;78.99;102503.31;4977775;28;20035;-84
2022/01/13 05:47:02;;;;;;;12.48;5.88;;;;;;;-1.45;78.78;102512.94;4977959;28;20161;-87
2022/01/13 05:49:27;;;;;;;12.40;4.70;;;;;;;-1.48;77.61;102502.63;4978797;28;20034;-86
2022/01/13 05:51:53;;;;;;;14.70;5.82;;;;;;;-1.52;77.07;102501.84;4977925;28;20150;-84
2022/01/13 05:54:18;;;;;;;9.73;5.20;;;;;;;-1.54;78.46;102503.66;4977172;28;20109;-90
2022/01/13 05:56:44;;;;;;;13.95;5.40;;;;;;;-1.28;79.33;102511.66;4977403;28;20100;-84
2022/01/13 05:59:09;;;;;;;17.23;6.07;;;;;;;-1.46;80.79;102513.88;4980155;28;20109;-90
2022/01/13 06:01:35;;;;;;;14.05;5.63;;;;;;;-1.59;80.44;102511.53;4977797;28;20469;-87
2022/01/13 06:04:00;;;;;;;14.65;5.07;;;;;;;-1.37;78.46;102505.84;4975511;28;20042;-84
2022/01/13 06:06:27;;;;;;;10.85;4.90;;;;;;;-1.44;77.37;102504.28;4978336;28;20037;-86
2022/01/13 06:08:53;;;;;;;12.95;4.35;;;;;;;-1.63;76.92;102498.66;4978450;28;20433;-87
2022/01/13 06:11:22;;;;;;;8.18;3.70;;;;;;;-1.66;76.77;102509.97;4979580;28;20045;-85
2022/01/13 06:13:57;;;;;;;8.45;3.75;;;;;;;-1.58;76.85;102507.19;4979287;28;20037;-86
2022/01/13 06:16:22;;;;;;;8.90;4.43;;;;;;;-1.70;76.56;102507.50;4981534;28;20058;-91
2022/01/13 06:18:50;;;;;;;7.03;3.90;;;;;;;-1.63;77.10;102496.94;4982271;28;20034;-86
2022/01/13 06:21:16;;;;;;;8.20;3.60;;;;;;;-1.67;77.49;102503.09;4985967;28;20123;-84
2022/01/13 06:23:49;;;;;;;16.83;3.95;;;;;;;-1.61;77.53;102512.47;4983756;28;20049;-83
2022/01/13 06:26:14;;;;;;;8.88;3.78;;;;;;;-1.47;77.68;102515.59;4982856;28;20030;-86
2022/01/13 06:28:40;;;;;;;13.02;4.03;;;;;;;-1.38;77.78;102519.72;4987534;28;20031;-86
2022/01/13 06:31:06;;;;;;;13.85;5.10;;;;;;;-1.28;77.71;102518.59;4978338;28;20650;-87
2022/01/13 06:33:32;;;;;;;16.77;6.45;;;;;;;-1.24;78.80;102528.03;4978568;28;20069;-87
2022/01/13 06:35:58;;;;;;;15.63;5.68;;;;;;;-1.03;77.84;102537.06;4978447;28;20031;-84
2022/01/13 06:38:24;;;;;;;15.95;5.47;;;;;;;-1.25;79.53;102541.94;4979647;28;20033;-87
2022/01/13 06:40:51;;;;;;;23.58;6.82;;;;;;;-1.35;86.31;102530.03;4981235;28;20043;-86
2022/01/13 06:43:17;;;;;;;33.28;6.13;;;;;;;-1.41;84.57;102530.19;4980466;28;20034;-88
2022/01/13 06:45:44;;;;;;;28.95;7.70;;;;;;;-1.60;82.44;102538.44;4976757;28;20119;-82
2022/01/13 06:48:10;;;;;;;35.28;6.65;;;;;;;-1.69;82.90;102551.63;4964934;28;20041;-84
2022/01/13 06:50:36;;;;;;;18.05;5.75;;;;;;;-1.92;84.89;102566.06;4977509;28;20057;-83
2022/01/13 06:53:02;;;;;;;22.90;6.40;;;;;;;-2.08;85.76;102573.28;4979341;28;20027;-83
2022/01/13 06:55:28;;;;;;;14.90;5.53;;;;;;;-2.22;86.98;102578.75;4984927;28;20039;-82
2022/01/13 06:57:54;;;;;;;21.25;6.13;;;;;;;-2.27;86.87;102583.19;4988686;28;20021;-83
2022/01/13 07:00:21;;;;;;;24.75;6.10;;;;;;;-2.17;87.33;102602.91;4985711;28;20054;-84
2022/01/13 07:02:47;;;;;;;18.08;6.78;;;;;;;-2.19;86.37;102598.66;4969911;28;20030;-84
2022/01/13 07:05:13;;;;;;;12.50;6.65;;;;;;;-2.07;85.71;102613.97;4967691;28;20031;-88
2022/01/13 07:07:40;;;;;;;17.83;6.45;;;;;;;-2.01;86.65;102619.03;4965625;28;20484;-86
2022/01/13 07:10:07;;;;;;;18.23;6.70;;;;;;;-1.90;85.89;102614.50;4974015;28;20038;-83
2022/01/13 07:12:35;;;;;;;31.98;7.63;;;;;;;-1.69;85.39;102614.00;4971589;28;20031;-83
2022/01/13 07:15:01;;;;;;;23.38;6.85;;;;;;;-1.27;84.96;102607.00;4977203;28;20038;-86
2022/01/13 07:17:27;;;;;;;19.58;8.20;;;;;;;-1.17;83.32;102607.66;4976544;28;20819;-88
2022/01/13 07:19:53;;;;;;;31.60;13.73;;;;;;;-1.23;83.40;102613.00;4976034;28;20408;-86
2022/01/13 07:22:19;;;;;;;31.27;13.80;;;;;;;-1.17;82.42;102598.09;4976669;28;20035;-84
2022/01/13 07:24:45;;;;;;;26.92;11.73;;;;;;;-1.17;83.19;102590.31;4979236;28;20039;-86
2022/01/13 07:27:11;;;;;;;22.05;10.27;;;;;;;-0.53;82.01;102599.06;4978676;28;20082;-85
2022/01/13 07:29:39;;;;;;;30.55;10.18;;;;;;;0.14;81.20;102611.06;4977753;28;20027;-85
2022/01/13 07:32:12;;;;;;;23.58;10.07;;;;;;;0.77;75.15;102608.25;4980769;28;20077;-84
2022/01/13 07:34:39;;;;;;;38.97;11.32;;;;;;;0.64;76.60;102619.13;4988255;28;20042;-83
2022/01/13 07:37:05;;;;;;;27.25;9.77;;;;;;;1.16;73.00;102616.56;4986076;28;20058;-84
2022/01/13 07:39:32;;;;;;;27.92;10.45;;;;;;;1.52;71.50;102625.75;4985044;28;20027;-86
2022/01/13 07:41:58;;;;;;;55.33;10.25;;;;;;;2.16;70.16;102638.28;4964658;28;20039;-88
2022/01/13 07:44:23;;;;;;;56.35;11.90;;;;;;;2.99;65.71;102632.41;4973903;28;20452;-85
2022/01/13 07:46:49;;;;;;;85.22;13.65;;;;;;;3.19;65.73;102624.59;4978148;28;20026;-87
2022/01/13 07:49:14;;;;;;;88.53;16.42;;;;;;;4.29;63.00;102632.00;4982738;28;20023;-86
2022/01/13 07:51:47;;;;;;;144.70;24.15;;;;;;;5.17;59.01;102638.28;4988987;28;20045;-86
2022/01/13 07:54:13;;;;;;;62.22;13.15;;;;;;;5.17;58.10;102633.03;4976180;28;20088;-85
2022/01/13 07:56:38;;;;;;;148.18;15.43;;;;;;;6.07;56.12;102621.34;4969778;28;20512;-87
2022/01/13 07:59:09;;;;;;;149.88;18.02;;;;;;;6.75;54.53;102626.34;4960774;28;20046;-82
2022/01/13 08:01:35;;;;;;;164.23;18.02;;;;;;;7.20;52.78;102628.13;4983513;28;20061;-88
2022/01/13 08:04:03;;;;;;;48.20;11.52;;;;;;;7.18;49.44;102634.44;4993940;28;20046;-85
2022/01/13 08:06:29;;;;;;;101.50;13.73;;;;;;;7.33;49.66;102633.53;4994718;28;20061;-87
2022/01/13 08:08:58;;;;;;;55.30;12.10;;;;;;;7.28;49.30;102638.25;4974954;28;20477;-86
2022/01/13 08:11:26;;;;;;;99.82;14.45;;;;;;;6.44;49.66;102644.75;4971107;28;20046;-84
2022/01/13 08:13:55;;;;;;;128.38;21.35;;;;;;;6.04;52.30;102643.44;4992133;28;20560;-88
2022/01/13 08:16:20;;;;;;;63.78;11.32;;;;;;;5.36;52.94;102651.34;4975720;28;20041;-84
2022/01/13 08:21:33;;;;;;;77.38;13.50;;;;;;;3.88;59.14;102651.38;4983803;28;20046;-87
2022/01/13 08:24:00;;;;;;;499.98;45.22;;;;;;;3.68;59.43;102643.53;4983076;28;20062;-87
2022/01/13 08:26:28;;;;;;;222.35;27.92;;;;;;;3.67;60.71;102636.56;4983604;28;20043;-84
2022/01/13 08:28:54;;;;;;;68.68;12.13;;;;;;;3.23;60.50;102636.66;4984585;28;20039;-85
2022/01/13 08:31:30;;;;;;;82.03;13.73;;;;;;;3.21;62.16;102635.03;4981346;28;20049;-86
2022/01/13 08:34:00;;;;;;;69.93;14.00;;;;;;;3.51;63.08;102637.19;4971488;28;20094;-86
2022/01/13 08:36:27;;;;;;;39.10;10.85;;;;;;;3.59;61.98;102634.25;4975238;28;20043;-88
2022/01/13 08:38:56;;;;;;;27.15;9.38;;;;;;;3.51;61.81;102637.19;4974076;28;20604;-86
2022/01/13 08:41:22;;;;;;;41.40;11.25;;;;;;;3.69;61.63;102653.94;4963319;28;20035;-86
2022/01/13 08:43:55;;;;;;;74.53;15.63;;;;;;;3.62;63.42;102649.84;4977917;28;20069;-86
2022/01/13 08:46:33;;;;;;;45.58;11.48;;;;;;;3.44;63.29;102664.63;4979714;28;20043;-89
2022/01/13 08:52:13;;;;;;;;;;;;;;;2.76;64.79;102677.00;4175533;26;20046;-85
2022/01/13 08:55:00;;;;;;;81.63;12.57;;;;;;;2.39;67.57;102672.31;5009962;28;19918;-85
2022/01/13 08:57:33;;;;;;;151.68;17.48;;;;;;;2.67;67.65;102672.97;4993849;28;20038;-85
2022/01/13 09:00:06;;;;;;;134.98;15.80;;;;;;;2.88;67.44;102687.00;5008298;28;20038;-84
2022/01/13 09:02:34;;;;;;;110.13;11.60;;;;;;;3.23;67.11;102678.59;5004251;23;20049;-86
2022/01/13 09:05:06;;;;;;;103.25;13.25;;;;;;;3.11;65.81;102684.34;4983120;28;20092;-85
2022/01/13 09:07:32;;;;;;;32.53;8.48;;;;;;;3.18;65.71;102692.81;4977626;28;20043;-83
2022/01/13 09:09:58;;;;;;;30.92;9.88;;;;;;;3.09;64.78;102689.63;4978488;28;20058;-85
2022/01/13 09:12:24;;;;;;;35.58;8.90;;;;;;;3.15;64.86;102698.16;4974702;28;20034;-83
2022/01/13 09:14:51;;;;;;;32.90;9.68;;;;;;;2.66;65.65;102692.22;4965388;28;20447;-83
2022/01/13 09:17:23;;;;;;;28.27;8.52;;;;;;;2.57;66.60;102682.09;4969221;28;20038;-86
2022/01/13 09:19:51;;;;;;;53.63;12.18;;;;;;;3.01;66.16;102685.63;4986458;28;20042;-85
2022/01/13 09:22:17;;;;;;;28.23;10.55;;;;;;;3.05;65.69;102692.41;4977064;28;20046;-85
2022/01/13 09:24:43;;;;;;;32.45;11.95;;;;;;;2.99;66.11;102693.53;4972990;28;20051;-84
2022/01/13 09:27:08;;;;;;;55.85;13.52;;;;;;;3.36;66.55;102695.53;4968492;28;20032;-82
2022/01/13 09:29:34;;;;;;;28.63;14.30;;;;;;;3.13;67.48;102703.47;4976548;28;20039;-85
2022/01/13 09:32:00;;;;;;;34.92;14.35;;;;;;;3.25;67.60;102713.44;4968487;28;20056;-83
2022/01/13 09:34:26;;;;;;;46.00;17.65;;;;;;;3.11;69.43;102708.78;4970536;28;20093;-84
2022/01/13 09:36:52;;;;;;;43.22;17.77;;;;;;;2.99;71.00;102700.53;4965487;28;20034;-82
2022/01/13 09:39:18;;;;;;;42.45;17.92;;;;;;;3.12;71.09;102691.25;4972651;28;20531;-84
2022/01/13 09:41:44;;;;;;;43.63;17.50;;;;;;;3.13;71.05;102688.59;4967664;28;20039;-82
2022/01/13 09:44:13;;;;;;;44.55;18.77;;;;;;;3.35;71.74;102693.81;4977952;28;20041;-83
2022/01/13 09:46:39;;;;;;;39.35;18.23;;;;;;;3.38;71.86;102701.53;4987072;28;20027;-82
2022/01/13 09:49:06;;;;;;;36.40;18.17;;;;;;;3.36;72.38;102697.28;4971770;28;20070;-83
2022/01/13 09:51:36;;;;;;;42.80;19.27;;;;;;;3.13;74.61;102703.47;4962660;28;20489;-82
2022/01/13 09:54:03;;;;;;;52.05;20.88;;;;;;;3.02;75.89;102695.16;4966380;28;20038;-80
2022/01/13 09:56:32;;;;;;;56.05;21.08;;;;;;;3.02;77.61;102697.78;4969323;28;20069;-80
2022/01/13 09:58:58;;;;;;;61.50;20.98;;;;;;;2.92;79.99;102699.91;4963665;28;20512;-81
2022/01/13 10:01:23;;;;;;;58.58;22.15;;;;;;;2.99;79.95;102700.53;4967791;28;20043;-83
2022/01/13 10:03:50;;;;;;;50.83;22.83;;;;;;;3.24;78.43;102690.78;4964714;28;20042;-82
2022/01/13 10:06:19;;;;;;;54.15;22.00;;;;;;;3.54;77.79;102694.78;4964129;28;20038;-81
2022/01/13 10:08:46;;;;;;;54.53;20.55;;;;;;;3.51;77.41;102694.88;4968334;28;20031;-81
2022/01/13 10:11:32;;;;;;;53.20;20.95;;;;;;;3.30;78.43;102687.91;4963296;28;20488;-80
2022/01/13 10:14:17;;;;;;;58.42;23.10;;;;;;;3.29;78.54;102688.81;4965861;28;20042;-82
2022/01/13 10:16:50;;;;;;;51.08;23.70;;;;;;;3.63;77.64;102707.50;4970255;28;20079;-83
2022/01/13 10:19:45;;;;;;;57.80;23.35;;;;;;;3.51;76.95;102705.34;4971573;28;20022;-84
2022/01/13 10:22:19;;;;;;;53.95;23.13;;;;;;;3.36;77.31;102708.63;4954516;28;20382;-83
2022/01/13 10:24:54;;;;;;;44.67;23.73;;;;;;;3.37;77.15;102702.47;4966108;28;20043;-84
2022/01/13 10:27:28;;;;;;;49.70;23.85;;;;;;;3.25;77.06;102702.94;4968967;28;20031;-82
2022/01/13 10:30:15;;;;;;;48.75;22.88;;;;;;;3.19;77.51;102718.06;4958647;28;20493;-80
2022/01/13 10:32:42;;;;;;;48.15;22.30;;;;;;;3.22;78.08;102697.84;4973749;28;20058;-81
2022/01/13 10:35:21;;;;;;;53.95;21.45;;;;;;;3.14;78.33;102705.16;4983640;28;20030;-82
2022/01/13 10:37:57;;;;;;;86.82;23.77;;;;;;;3.13;80.20;102698.22;4979851;28;20039;-82
2022/01/13 10:40:31;;;;;;;45.15;22.13;;;;;;;3.12;79.73;102696.50;4967034;28;20043;-80
2022/01/13 10:45:36;;;;;;;58.63;24.58;;;;;;;3.20;80.71;102686.59;4971156;28;20038;-82
2022/01/13 10:48:02;;;;;;;53.30;21.73;;;;;;;3.21;80.31;102685.69;4970831;28;20041;-80
2022/01/13 10:50:36;;;;;;;44.33;22.08;;;;;;;3.16;79.96;102692.84;4970473;28;20039;-81
2022/01/13 10:53:14;;;;;;;47.42;22.30;;;;;;;3.15;80.06;102696.38;4971058;28;20050;-81
2022/01/13 10:55:43;;;;;;;43.40;21.98;;;;;;;3.11;80.82;102692.19;4971655;28;20027;-81
2022/01/13 10:58:13;;;;;;;43.95;21.48;;;;;;;3.30;80.87;102700.16;4969248;28;20043;-82
2022/01/13 11:00:39;;;;;;;47.95;21.02;;;;;;;3.26;81.58;102699.44;4959519;28;20026;-80
2022/01/13 11:03:12;;;;;;;45.03;22.05;;;;;;;3.34;81.88;102697.38;4971600;28;20129;-81
2022/01/13 11:05:45;;;;;;;48.60;21.63;;;;;;;3.33;82.59;102706.13;4971467;28;20480;-82
2022/01/13 11:08:11;;;;;;;54.75;21.08;;;;;;;3.23;83.45;102702.19;4968964;28;20415;-81
2022/01/13 11:10:46;;;;;;;64.00;26.48;;;;;;;3.39;84.10;102698.00;4970481;28;20034;-81
2022/01/13 11:13:20;;;;;;;48.40;24.17;;;;;;;3.31;83.35;102697.50;4971514;28;20035;-82
2022/01/13 11:15:50;;;;;;;50.63;22.20;;;;;;;3.40;83.07;102709.34;4970531;28;20046;-80
2022/01/13 11:18:22;;;;;;;46.22;23.42;;;;;;;3.31;84.12;102692.25;4967760;28;20069;-87
2022/01/13 11:20:49;;;;;;;49.30;23.38;;;;;;;3.51;84.67;102700.13;4971216;28;20113;-82
2022/01/13 11:23:16;;;;;;;53.50;24.95;;;;;;;3.61;83.63;102701.44;4970264;28;20035;-85
2022/01/13 11:25:50;;;;;;;52.58;22.83;;;;;;;3.74;84.80;102686.06;4968206;28;20026;-84
2022/01/13 11:28:16;;;;;;;71.50;27.73;;;;;;;3.74;84.61;102688.69;4965082;28;20055;-85
2022/01/13 11:30:42;;;;;;;53.53;23.92;;;;;;;3.77;83.73;102677.22;4960640;28;20032;-82
2022/01/13 11:33:08;;;;;;;50.72;23.73;;;;;;;3.76;84.22;102670.25;4961580;28;20046;-83
2022/01/13 11:35:38;;;;;;;43.70;20.98;;;;;;;3.85;83.22;102660.22;4963875;28;20465;-82
2022/01/13 11:38:06;;;;;;;48.53;21.83;;;;;;;3.83;84.35;102663.81;4974152;28;20035;-79
2022/01/13 11:40:42;;;;;;;43.13;21.35;;;;;;;3.78;84.27;102652.69;4958645;28;20162;-84
2022/01/13 11:43:30;;;;;;;47.08;22.80;;;;;;;3.78;84.47;102655.31;4967230;28;20608;-84
2022/01/13 11:45:59;;;;;;;41.25;20.95;;;;;;;3.95;83.54;102650.16;4969233;28;20401;-86
2022/01/13 11:48:29;;;;;;;51.03;21.58;;;;;;;3.83;83.83;102645.47;4960200;28;20031;-82
2022/01/13 11:51:15;;;;;;;47.90;23.20;;;;;;;3.83;83.63;102642.84;4969347;28;20044;-84
2022/01/13 11:53:54;;;;;;;50.30;23.30;;;;;;;3.82;83.64;102630.63;4969277;28;20112;-79